createdAt,value
2018-12-27T00:00:54.764Z,41.50
2018-12-27T00:03:26.834Z,47.07
2018-12-27T00:05:58.869Z,39.50
2018-12-27T00:08:31.288Z,39.10
2018-12-27T00:11:03.823Z,41.90
2018-12-27T00:13:36.085Z,41.70
2018-12-27T00:16:08.073Z,40.23
2018-12-27T00:18:40.297Z,47.67
2018-12-27T00:21:12.398Z,38.03
2018-12-27T00:23:44.648Z,34.80
2018-12-27T00:26:16.631Z,30.63
2018-12-27T00:28:48.600Z,44.03
2018-12-27T00:31:20.594Z,43.13
2018-12-27T00:33:52.562Z,32.83
2018-12-27T00:36:24.602Z,45.50
2018-12-27T00:38:56.574Z,38.63
2018-12-27T00:41:28.573Z,44.23
2018-12-27T00:44:00.833Z,42.93
2018-12-27T00:46:33.141Z,42.13
2018-12-27T00:49:05.089Z,46.80
2018-12-27T00:51:37.077Z,38.97
2018-12-27T00:54:09.063Z,43.03
2018-12-27T00:56:41.049Z,46.03
2018-12-27T00:59:13.044Z,45.40
2018-12-27T01:01:45.127Z,35.43
2018-12-27T01:04:17.130Z,38.07
2018-12-27T01:06:49.385Z,35.37
2018-12-27T01:09:21.408Z,38.77
2018-12-27T01:11:54.158Z,36.10
2018-12-27T01:14:26.173Z,32.40
2018-12-27T01:16:58.156Z,42.93
2018-12-27T01:19:30.841Z,40.20
2018-12-27T01:22:02.876Z,34.90
2018-12-27T01:24:34.888Z,40.10
2018-12-27T01:27:06.891Z,39.60
2018-12-27T01:29:39.207Z,38.73
2018-12-27T01:32:11.170Z,34.13
2018-12-27T01:34:43.225Z,37.47
2018-12-27T01:37:15.194Z,39.93
2018-12-27T01:39:47.199Z,37.10
2018-12-27T01:42:19.162Z,35.17
2018-12-27T01:44:51.517Z,34.43
2018-12-27T01:47:23.600Z,36.97
2018-12-27T01:49:55.600Z,31.83
2018-12-27T01:52:27.576Z,29.57
2018-12-27T01:54:59.622Z,36.63
2018-12-27T01:57:31.588Z,35.73
2018-12-27T02:00:03.618Z,38.27
2018-12-27T02:02:35.580Z,37.37
2018-12-27T02:05:07.583Z,36.70
2018-12-27T02:07:39.549Z,32.77
2018-12-27T02:10:11.557Z,28.67
2018-12-27T02:12:43.525Z,29.50
2018-12-27T02:15:15.573Z,31.67
2018-12-27T02:17:47.798Z,31.07
2018-12-27T02:20:21.491Z,27.83
2018-12-27T02:22:53.583Z,29.27
2018-12-27T02:25:26.030Z,26.40
2018-12-27T02:27:58.266Z,25.47
2018-12-27T02:30:30.399Z,26.07
2018-12-27T02:33:02.467Z,28.60
2018-12-27T02:35:34.479Z,20.90
2018-12-27T02:38:06.462Z,27.60
2018-12-27T02:40:38.444Z,24.03
2018-12-27T02:43:10.970Z,24.67
2018-12-27T02:45:43.204Z,16.63
2018-12-27T02:48:15.476Z,20.90
2018-12-27T02:50:47.452Z,20.67
2018-12-27T02:53:19.461Z,23.57
2018-12-27T02:55:51.451Z,23.33
2018-12-27T02:58:23.420Z,17.43
2018-12-27T03:00:55.410Z,22.77
2018-12-27T03:03:27.382Z,16.77
2018-12-27T03:05:59.377Z,19.33
2018-12-27T03:08:31.681Z,17.33
2018-12-27T03:11:03.687Z,14.77
2018-12-27T03:13:35.680Z,19.80
2018-12-27T03:16:07.781Z,19.13
2018-12-27T03:18:39.747Z,19.87
2018-12-27T03:21:11.742Z,17.40
2018-12-27T03:23:43.707Z,16.37
2018-12-27T03:26:15.725Z,16.27
2018-12-27T03:28:47.822Z,17.73
2018-12-27T03:31:19.926Z,20.97
2018-12-27T03:33:52.809Z,20.67
2018-12-27T03:36:25.059Z,17.50
2018-12-27T03:38:57.338Z,17.73
2018-12-27T03:41:29.344Z,21.73
2018-12-27T03:44:01.325Z,19.77
2018-12-27T03:46:33.350Z,17.27
2018-12-27T03:49:05.586Z,16.33
2018-12-27T03:51:37.591Z,17.03
2018-12-27T03:54:09.549Z,15.37
2018-12-27T03:56:41.564Z,16.93
2018-12-27T03:59:13.522Z,17.83
2018-12-27T04:01:45.544Z,19.57
2018-12-27T04:04:17.533Z,18.20
2018-12-27T04:06:49.959Z,17.60
2018-12-27T04:09:21.916Z,16.57
2018-12-27T04:11:53.920Z,16.20
2018-12-27T04:14:25.892Z,15.87
2018-12-27T04:16:57.929Z,17.30
2018-12-27T04:19:30.136Z,16.67
2018-12-27T04:22:02.653Z,16.63
2018-12-27T04:24:34.809Z,16.37
2018-12-27T04:27:06.823Z,15.37
2018-12-27T04:29:39.066Z,15.27
2018-12-27T04:32:11.429Z,13.40
2018-12-27T04:34:43.685Z,16.57
2018-12-27T04:37:15.694Z,16.87
2018-12-27T04:39:47.781Z,17.70
2018-12-27T04:42:20.199Z,19.20
2018-12-27T04:44:52.210Z,17.47
2018-12-27T04:47:24.798Z,18.57
2018-12-27T04:49:57.081Z,19.23
2018-12-27T04:52:29.085Z,24.70
2018-12-27T04:55:01.065Z,25.80
2018-12-27T04:57:33.199Z,24.90
2018-12-27T05:00:05.851Z,24.50
2018-12-27T05:02:37.917Z,26.53
2018-12-27T05:05:09.881Z,25.10
2018-12-27T05:07:42.181Z,22.07
2018-12-27T05:10:14.336Z,25.13
2018-12-27T05:12:46.713Z,20.70
2018-12-27T05:15:18.787Z,18.57
2018-12-27T05:17:51.139Z,20.80
2018-12-27T05:20:23.570Z,18.73
2018-12-27T05:22:55.544Z,20.83
2018-12-27T05:25:27.544Z,20.23
2018-12-27T05:27:59.525Z,16.93
2018-12-27T05:30:31.626Z,20.97
2018-12-27T05:33:04.031Z,22.37
2018-12-27T05:35:36.320Z,18.90
2018-12-27T05:38:08.307Z,18.87
2018-12-27T05:40:40.379Z,21.10
2018-12-27T05:43:12.349Z,20.23
2018-12-27T05:45:44.349Z,20.87
2018-12-27T05:48:16.684Z,20.63
2018-12-27T05:50:48.741Z,19.53
2018-12-27T05:53:20.973Z,22.37
2018-12-27T05:55:53.089Z,20.57
2018-12-27T05:58:25.059Z,21.47
2018-12-27T06:00:57.045Z,21.00
2018-12-27T06:03:29.010Z,20.40
2018-12-27T06:06:01.293Z,18.07
2018-12-27T06:08:33.384Z,18.37
2018-12-27T06:11:05.474Z,20.83
2018-12-27T06:13:37.440Z,17.50
2018-12-27T06:16:09.440Z,19.50
2018-12-27T06:18:41.502Z,18.80
2018-12-27T06:21:13.911Z,23.50
2018-12-27T06:23:46.134Z,20.77
2018-12-27T06:26:18.209Z,17.80
2018-12-27T06:28:50.187Z,19.50
2018-12-27T06:31:22.294Z,19.17
2018-12-27T06:33:54.357Z,20.10
2018-12-27T06:36:26.535Z,20.40
2018-12-27T06:38:58.606Z,21.93
2018-12-27T06:41:30.598Z,16.80
2018-12-27T06:44:02.671Z,18.57
2018-12-27T06:46:34.709Z,19.60
2018-12-27T06:49:06.692Z,17.83
2018-12-27T06:51:39.061Z,20.60
2018-12-27T06:54:11.302Z,19.33
2018-12-27T06:56:43.484Z,20.43
2018-12-27T06:59:15.733Z,19.73
2018-12-27T07:01:48.017Z,19.83
2018-12-27T07:04:19.996Z,18.40
2018-12-27T07:06:52.120Z,18.43
2018-12-27T07:09:24.336Z,19.10
2018-12-27T07:11:56.516Z,20.20
2018-12-27T07:14:28.448Z,18.03
2018-12-27T07:17:00.487Z,21.27
2018-12-27T07:19:32.541Z,22.30
2018-12-27T07:22:04.826Z,20.73
2018-12-27T07:24:37.300Z,20.40
2018-12-27T07:27:09.599Z,21.33
2018-12-27T07:29:41.991Z,21.60
2018-12-27T07:32:14.099Z,23.67
2018-12-27T07:34:46.557Z,18.67
2018-12-27T07:37:18.557Z,23.43
2018-12-27T07:39:50.523Z,19.93
2018-12-27T07:42:22.933Z,23.20
2018-12-27T07:44:55.006Z,21.80
2018-12-27T07:47:27.004Z,21.07
2018-12-27T07:49:59.071Z,22.73
2018-12-27T07:52:31.464Z,22.73
2018-12-27T07:55:03.663Z,23.13
2018-12-27T07:57:35.952Z,22.90
2018-12-27T08:00:08.258Z,21.03
2018-12-27T08:02:40.258Z,21.40
2018-12-27T08:05:12.237Z,22.50
2018-12-27T08:07:44.357Z,21.07
2018-12-27T08:10:16.339Z,18.67
2018-12-27T08:12:49.636Z,22.50
2018-12-27T08:15:21.648Z,25.10
2018-12-27T08:17:53.662Z,20.43
2018-12-27T08:20:25.715Z,23.07
2018-12-27T08:22:57.730Z,24.73
2018-12-27T08:25:29.940Z,22.93
2018-12-27T08:28:02.085Z,20.33
2018-12-27T08:30:34.466Z,21.57
2018-12-27T08:33:06.487Z,20.90
2018-12-27T08:35:38.754Z,26.13
2018-12-27T08:38:10.888Z,21.00
2018-12-27T08:40:43.112Z,24.17
2018-12-27T08:43:15.517Z,25.53
2018-12-27T08:45:47.514Z,22.33
2018-12-27T08:48:19.881Z,22.83
2018-12-27T08:50:51.948Z,26.70
2018-12-27T08:53:24.204Z,21.10
2018-12-27T08:55:56.201Z,23.97
2018-12-27T08:58:28.221Z,24.97
2018-12-27T09:01:00.195Z,26.03
2018-12-27T09:03:32.383Z,26.50
2018-12-27T09:06:04.457Z,24.27
2018-12-27T09:08:36.584Z,23.20
2018-12-27T09:11:09.372Z,24.50
2018-12-27T09:13:41.649Z,23.43
2018-12-27T09:16:13.619Z,22.83
2018-12-27T09:18:45.789Z,24.40
2018-12-27T09:21:18.206Z,24.10
2018-12-27T09:23:50.326Z,26.53
2018-12-27T09:26:22.574Z,25.63
2018-12-27T09:28:54.697Z,26.17
2018-12-27T09:31:26.982Z,25.07
2018-12-27T09:33:59.081Z,33.27
2018-12-27T09:36:31.149Z,26.07
2018-12-27T09:39:05.500Z,26.67
2018-12-27T09:41:37.620Z,22.73
2018-12-27T09:44:15.698Z,27.60
2018-12-27T09:46:47.946Z,22.93
2018-12-27T09:49:20.071Z,24.50
2018-12-27T09:51:52.097Z,27.93
2018-12-27T09:54:24.378Z,26.07
2018-12-27T09:56:56.810Z,23.83
2018-12-27T09:59:28.817Z,25.77
2018-12-27T10:02:00.845Z,27.80
2018-12-27T10:04:33.054Z,27.30
2018-12-27T10:07:05.233Z,26.10
2018-12-27T10:09:37.453Z,23.07
2018-12-27T10:12:09.720Z,25.33
2018-12-27T10:14:42.113Z,23.23
2018-12-27T10:17:14.171Z,25.60
2018-12-27T10:19:46.481Z,23.97
2018-12-27T10:22:18.555Z,27.13
2018-12-27T10:24:50.919Z,21.20
2018-12-27T10:27:23.185Z,26.03
2018-12-27T10:29:55.166Z,25.30
2018-12-27T10:32:27.215Z,29.37
2018-12-27T10:34:59.195Z,25.13
2018-12-27T10:37:31.221Z,21.83
2018-12-27T10:40:06.161Z,21.70
2018-12-27T10:42:38.490Z,24.43
2018-12-27T10:45:10.553Z,17.30
2018-12-27T10:47:43.010Z,26.70
2018-12-27T10:50:15.228Z,24.80
2018-12-27T10:52:47.467Z,23.00
2018-12-27T10:55:19.672Z,21.53
2018-12-27T10:57:51.711Z,21.47
2018-12-27T11:00:24.193Z,24.40
2018-12-27T11:02:56.229Z,24.50
2018-12-27T11:05:28.618Z,20.60
2018-12-27T11:08:00.649Z,24.27
2018-12-27T11:10:32.919Z,22.57
2018-12-27T11:13:05.044Z,21.17
2018-12-27T11:15:37.416Z,23.57
2018-12-27T11:18:09.433Z,22.23
2018-12-27T11:20:41.416Z,21.90
2018-12-27T11:23:13.682Z,23.07
2018-12-27T11:25:46.136Z,22.43
2018-12-27T11:28:18.303Z,20.87
2018-12-27T11:30:50.580Z,20.40
2018-12-27T11:33:22.693Z,21.70
2018-12-27T11:35:55.912Z,26.57
2018-12-27T11:38:28.155Z,17.93
2018-12-27T11:41:03.274Z,24.63
2018-12-27T11:43:35.822Z,20.30
2018-12-27T11:46:07.882Z,18.67
2018-12-27T11:48:39.900Z,22.63
2018-12-27T11:51:12.010Z,21.70
2018-12-27T11:53:44.155Z,18.73
2018-12-27T11:56:16.236Z,25.07
2018-12-27T11:58:48.413Z,22.43
2018-12-27T12:01:20.513Z,19.77
2018-12-27T12:03:52.633Z,20.03
2018-12-27T12:06:24.575Z,20.93
2018-12-27T12:08:56.578Z,22.10
2018-12-27T12:11:28.659Z,20.87
2018-12-27T12:14:00.640Z,20.47
2018-12-27T12:16:32.628Z,21.20
2018-12-27T12:19:04.938Z,18.87
2018-12-27T12:24:28.690Z,22.27
2018-12-27T12:27:13.787Z,18.37
2018-12-27T12:29:59.071Z,19.63
2018-12-27T12:32:43.940Z,20.57
2018-12-27T12:35:28.780Z,19.10
2018-12-27T12:38:13.409Z,19.60
2018-12-27T12:40:45.417Z,18.87
2018-12-27T12:43:29.887Z,16.00
2018-12-27T12:46:14.981Z,20.33
2018-12-27T12:49:00.353Z,19.20
2018-12-27T12:51:45.272Z,23.10
2018-12-27T12:54:30.773Z,18.87
2018-12-27T12:57:15.245Z,18.97
2018-12-27T13:00:00.587Z,17.23
2018-12-27T13:02:45.322Z,16.50
2018-12-27T13:05:30.856Z,17.00
2018-12-27T13:08:15.705Z,16.70
2018-12-27T13:11:01.381Z,17.60
2018-12-27T13:13:46.560Z,15.67
2018-12-27T13:16:19.061Z,19.73
2018-12-27T13:19:10.761Z,18.07
2018-12-27T13:21:55.472Z,18.03
2018-12-27T13:24:40.525Z,15.77
2018-12-27T13:27:25.845Z,18.37
2018-12-27T13:29:57.940Z,17.10
2018-12-27T13:32:42.829Z,17.23
2018-12-27T13:35:27.893Z,18.20
2018-12-27T13:37:59.873Z,21.20
2018-12-27T13:40:42.934Z,17.47
2018-12-27T13:43:28.373Z,18.10
2018-12-27T13:46:00.514Z,17.37
2018-12-27T13:48:52.218Z,15.90
2018-12-27T13:51:31.421Z,14.37
2018-12-27T13:54:23.425Z,16.47
2018-12-27T13:57:08.209Z,20.00
2018-12-27T13:59:53.346Z,13.70
2018-12-27T14:02:38.397Z,19.97
2018-12-27T14:05:10.634Z,14.50
2018-12-27T14:08:02.549Z,17.20
2018-12-27T14:10:47.850Z,16.13
2018-12-27T14:13:32.898Z,16.07
2018-12-27T14:16:18.230Z,16.20
2018-12-27T14:19:02.941Z,16.53
2018-12-27T14:21:47.898Z,17.73
2018-12-27T14:24:32.573Z,18.67
2018-12-27T14:27:18.154Z,16.33
2018-12-27T14:30:02.866Z,12.87
2018-12-27T14:32:47.886Z,18.80
2018-12-27T14:35:20.422Z,16.97
2018-12-27T14:38:12.280Z,13.40
2018-12-27T14:40:57.419Z,19.83
2018-12-27T14:43:42.346Z,15.13
2018-12-27T14:46:27.494Z,14.30
2018-12-27T14:48:59.493Z,15.33
2018-12-27T14:51:51.232Z,17.53
2018-12-27T14:54:33.954Z,17.97
2018-12-27T14:57:18.802Z,16.70
2018-12-27T15:00:03.778Z,18.63
2018-12-27T15:02:49.135Z,20.37
2018-12-27T15:05:33.808Z,19.77
2018-12-27T15:08:18.824Z,18.30
2018-12-27T15:11:03.956Z,19.37
2018-12-27T15:13:48.934Z,19.00
2018-12-27T15:16:33.961Z,18.10
2018-12-27T15:19:18.865Z,19.07
2018-12-27T15:22:04.466Z,16.93
2018-12-27T15:24:49.297Z,21.30
2018-12-27T15:27:34.226Z,17.20
2018-12-27T15:30:19.172Z,21.23
2018-12-27T15:33:04.364Z,18.50
2018-12-27T15:35:49.178Z,20.10
2018-12-27T15:38:34.602Z,24.53
2018-12-27T15:41:19.285Z,21.80
2018-12-27T15:44:04.338Z,17.63
2018-12-27T15:46:49.431Z,17.73
2018-12-27T15:49:34.811Z,23.73
2018-12-27T15:52:19.538Z,20.93
2018-12-27T15:55:04.678Z,25.03
2018-12-27T15:57:49.463Z,14.87
2018-12-27T16:00:34.109Z,15.53
2018-12-27T16:03:18.746Z,21.57
2018-12-27T16:06:03.589Z,16.77
2018-12-27T16:08:48.946Z,28.70
2018-12-27T16:11:33.923Z,23.23
2018-12-27T16:14:19.150Z,17.97
2018-12-27T16:17:03.948Z,23.10
2018-12-27T16:19:49.038Z,27.63
2018-12-27T16:22:33.949Z,22.40
2018-12-27T16:25:18.758Z,25.63
2018-12-27T16:28:04.211Z,24.63
2018-12-27T16:30:48.874Z,28.63
2018-12-27T16:33:34.012Z,21.23
2018-12-27T16:36:18.923Z,22.40
2018-12-27T16:39:04.191Z,21.27
2018-12-27T16:41:49.045Z,26.50
2018-12-27T16:44:34.367Z,25.97
2018-12-27T16:47:06.573Z,28.70
2018-12-27T16:49:58.193Z,26.47
2018-12-27T16:52:43.506Z,29.40
2018-12-27T16:55:28.875Z,32.50
2018-12-27T16:58:13.852Z,28.87
2018-12-27T17:00:59.079Z,27.40
2018-12-27T17:03:44.493Z,27.10
2018-12-27T17:06:30.263Z,26.07
2018-12-27T17:09:15.085Z,23.40
2018-12-27T17:12:00.366Z,22.17
2018-12-27T17:14:45.190Z,21.57
2018-12-27T17:17:17.279Z,22.80
2018-12-27T17:20:02.029Z,26.17
2018-12-27T17:22:46.934Z,29.97
2018-12-27T17:25:31.748Z,28.60
2018-12-27T17:28:16.881Z,25.43
2018-12-27T17:31:01.820Z,18.90
2018-12-27T17:33:46.882Z,23.73
2018-12-27T17:36:32.047Z,22.53
2018-12-27T17:39:17.038Z,26.63
2018-12-27T17:42:02.154Z,21.80
2018-12-27T17:44:34.327Z,23.07
2018-12-27T17:47:19.179Z,21.93
2018-12-27T17:50:04.480Z,20.43
2018-12-27T17:52:49.350Z,22.87
2018-12-27T17:55:21.469Z,24.37
2018-12-27T17:58:13.393Z,24.47
2018-12-27T18:00:58.599Z,23.97
2018-12-27T18:03:30.632Z,21.77
2018-12-27T18:06:22.354Z,19.17
2018-12-27T18:09:07.793Z,20.70
2018-12-27T18:11:52.942Z,20.63
2018-12-27T18:14:37.601Z,23.63
2018-12-27T18:17:22.397Z,23.90
2018-12-27T18:20:07.513Z,21.20
2018-12-27T18:22:52.437Z,26.40
2018-12-27T18:25:37.570Z,24.10
2018-12-27T18:28:22.558Z,27.67
2018-12-27T18:31:07.452Z,21.07
2018-12-27T18:33:52.709Z,21.40
2018-12-27T18:36:37.597Z,26.77
2018-12-27T18:39:22.678Z,25.73
2018-12-27T18:42:07.727Z,27.77
2018-12-27T18:44:53.130Z,23.00
2018-12-27T18:47:37.947Z,24.27
2018-12-27T18:50:23.009Z,25.23
2018-12-27T18:53:07.910Z,24.17
2018-12-27T18:55:52.856Z,26.80
2018-12-27T18:58:38.131Z,24.50
2018-12-27T19:01:10.287Z,23.03
2018-12-27T19:04:02.058Z,25.13
2018-12-27T19:06:46.820Z,25.73
2018-12-27T19:09:31.927Z,24.80
2018-12-27T19:12:17.489Z,27.33
2018-12-27T19:15:02.470Z,23.80
2018-12-27T19:17:47.683Z,24.53
2018-12-27T19:20:32.652Z,25.97
2018-12-27T19:23:17.897Z,31.37
2018-12-27T19:26:02.627Z,31.00
2018-12-27T19:28:47.727Z,29.07
2018-12-27T19:31:32.575Z,27.07
2018-12-27T19:34:17.649Z,29.00
2018-12-27T19:37:02.830Z,25.83
2018-12-27T19:39:47.482Z,25.63
2018-12-27T19:42:19.987Z,24.43
2018-12-27T19:45:11.718Z,27.40
2018-12-27T19:47:50.184Z,24.73
2018-12-27T19:50:41.893Z,21.63
2018-12-27T19:53:34.273Z,21.23
2018-12-27T19:56:19.022Z,22.60
2018-12-27T19:59:04.232Z,26.23
2018-12-27T20:01:49.380Z,23.37
2018-12-27T20:04:34.440Z,24.80
2018-12-27T20:07:19.526Z,24.47
2018-12-27T20:10:04.904Z,24.17
2018-12-27T20:12:49.592Z,27.73
2018-12-27T20:15:34.788Z,26.40
2018-12-27T20:18:19.554Z,27.60
2018-12-27T20:21:04.626Z,24.60
2018-12-27T20:23:49.630Z,21.97
2018-12-27T20:26:34.630Z,26.27
2018-12-27T20:29:06.960Z,27.70
2018-12-27T20:31:58.660Z,24.70
2018-12-27T20:34:43.781Z,26.83
2018-12-27T20:37:28.725Z,22.57
2018-12-27T20:40:14.110Z,28.40
2018-12-27T20:42:59.389Z,24.07
2018-12-27T20:45:44.319Z,23.47
2018-12-27T20:48:29.235Z,20.13
2018-12-27T20:51:14.586Z,22.87
2018-12-27T20:53:59.457Z,23.40
2018-12-27T20:56:44.797Z,28.33
2018-12-27T20:59:29.630Z,24.97
2018-12-27T21:02:14.735Z,24.93
2018-12-27T21:04:46.795Z,25.67
2018-12-27T21:07:38.397Z,25.43
2018-12-27T21:10:29.378Z,29.93
2018-12-27T21:13:14.680Z,23.73
2018-12-27T21:15:59.303Z,27.60
2018-12-27T21:18:44.641Z,24.47
2018-12-27T21:21:29.415Z,24.57
2018-12-27T21:24:14.435Z,25.60
2018-12-27T21:26:59.673Z,26.17
2018-12-27T21:29:44.565Z,26.53
2018-12-27T21:32:30.077Z,26.27
2018-12-27T21:35:15.065Z,25.17
2018-12-27T21:38:00.346Z,25.70
2018-12-27T21:40:45.595Z,25.77
2018-12-27T21:43:30.317Z,23.53
2018-12-27T21:46:15.421Z,27.00
2018-12-27T21:49:00.337Z,25.17
2018-12-27T21:51:45.418Z,27.80
2018-12-27T21:57:33.297Z,25.57
2018-12-27T22:00:18.286Z,27.07
2018-12-27T22:03:03.504Z,26.30
2018-12-27T22:08:40.307Z,26.63
2018-12-27T22:11:25.965Z,31.30
2018-12-27T22:14:11.040Z,26.70
2018-12-27T22:16:55.725Z,27.77
2018-12-27T22:19:40.872Z,26.77
2018-12-27T22:22:26.288Z,26.77
2018-12-27T22:25:10.968Z,26.47
2018-12-27T22:27:56.056Z,25.10
2018-12-27T22:30:41.327Z,23.97
2018-12-27T22:33:26.257Z,30.90
2018-12-27T22:36:11.357Z,24.07
2018-12-27T22:38:56.247Z,28.97
2018-12-27T22:41:41.508Z,27.40
2018-12-27T22:44:26.719Z,28.77
2018-12-27T22:47:11.514Z,31.87
2018-12-27T22:49:56.352Z,29.17
2018-12-27T22:52:41.500Z,28.33
2018-12-27T22:55:13.488Z,28.27
2018-12-27T22:57:58.846Z,29.53
2018-12-27T23:00:44.453Z,33.27
2018-12-27T23:03:28.894Z,36.10
2018-12-27T23:06:14.101Z,31.70
2018-12-27T23:08:59.370Z,35.53
2018-12-27T23:11:44.195Z,33.93
2018-12-27T23:14:29.116Z,34.53
2018-12-27T23:17:14.121Z,35.20
2018-12-27T23:19:59.379Z,32.37
2018-12-27T23:22:44.410Z,37.43
2018-12-27T23:25:29.673Z,33.30
2018-12-27T23:28:14.262Z,36.50
2018-12-27T23:30:59.370Z,40.23
2018-12-27T23:33:44.728Z,34.27
2018-12-27T23:36:29.407Z,34.00
2018-12-27T23:39:14.461Z,36.13
2018-12-27T23:41:46.778Z,34.07
2018-12-27T23:44:31.281Z,35.00
2018-12-27T23:47:03.591Z,35.73
2018-12-27T23:49:55.313Z,33.60
2018-12-27T23:52:38.161Z,39.77
2018-12-27T23:55:23.014Z,36.97
2018-12-27T23:58:07.776Z,32.47
